Terminal Aerodrome Forecast
Issued by NWS Jackson, MS

Home | Current Version | Previous Version | Text Only | Print | Product List | Glossary On
Versions: 1 2 3 4 5 6 7 8 9 10 11 12 13
850
FTUS44 KJAN 222326
TAFGWO
TAF
KGWO 222326Z 2300/2324 17011G20KT P6SM SCT020 SCT060 BKN090
     FM230700 18017KT P6SM VCSH SCT015 BKN025 BKN050
     FM231500 20016G24KT P6SM VCSH SCT015 BKN025 BKN050
     FM231800 24016G25KT P6SM VCTS SCT030 BKN050CB=

USA.gov is the U.S. government's official web portal to all federal, state and local government web resources and services.